Schedule Details


Flight Number: CTN418
Departure: Cilipi (LDDU) at 07:25
Arrival: Frankfurt/main (EDDF) at 09:30
Route: AMUGO UL611 UVODI UL862 SABAD DCT PIKIT DCT SUBEN UQ162 PSA

Weather Information
LDDU 290100Z VRB04KT 9999 BKN050 13/09 Q1010
EDDF 290120Z 22010KT 9999 -RA FEW007 BKN013 03/02 Q1003 NOSIG
Schedule Frequency

Route Map